createdAt,value
2023-03-12T00:00:59.703Z,8.20
2023-03-12T00:02:00.109Z,7.80
2023-03-12T00:03:00.311Z,7.90
2023-03-12T00:04:00.689Z,8.30
2023-03-12T00:05:00.916Z,7.60
2023-03-12T00:06:10.070Z,7.50
2023-03-12T00:07:02.530Z,7.70
2023-03-12T00:08:01.799Z,8.00
2023-03-12T00:09:02.096Z,8.80
2023-03-12T00:10:02.377Z,8.20
2023-03-12T00:11:02.531Z,8.40
2023-03-12T00:12:02.810Z,8.40
2023-03-12T00:13:03.123Z,8.20
2023-03-12T00:14:03.435Z,8.50
2023-03-12T00:15:03.772Z,8.10
2023-03-12T00:16:04.038Z,8.10
2023-03-12T00:17:04.325Z,8.00
2023-03-12T00:18:04.520Z,8.10
2023-03-12T00:19:04.807Z,8.10
2023-03-12T00:20:05.033Z,8.30
2023-03-12T00:21:05.375Z,9.80
2023-03-12T00:22:05.582Z,10.00
2023-03-12T00:23:05.981Z,8.50
2023-03-12T00:24:06.248Z,9.10
2023-03-12T00:25:06.536Z,8.50
2023-03-12T00:26:06.843Z,8.10
2023-03-12T00:27:07.080Z,8.90
2023-03-12T00:28:07.344Z,8.40
2023-03-12T00:29:07.705Z,8.60
2023-03-12T00:30:07.998Z,8.40
2023-03-12T00:31:08.360Z,8.60
2023-03-12T00:32:08.650Z,9.50
2023-03-12T00:33:08.956Z,9.10
2023-03-12T00:34:12.894Z,8.70
2023-03-12T00:35:09.780Z,9.20
2023-03-12T00:36:11.722Z,9.20
2023-03-12T00:37:10.243Z,9.50
2023-03-12T00:38:11.625Z,9.60
2023-03-12T00:39:11.028Z,9.10
2023-03-12T00:40:11.504Z,9.10
2023-03-12T00:41:11.949Z,8.80
2023-03-12T00:42:11.844Z,9.30
2023-03-12T00:43:12.280Z,9.50
2023-03-12T00:44:13.468Z,9.20
2023-03-12T00:45:13.556Z,9.60
2023-03-12T00:46:13.163Z,9.20
2023-03-12T00:47:13.550Z,8.70
2023-03-12T00:48:13.504Z,9.00
2023-03-12T00:49:14.238Z,8.90
2023-03-12T00:50:14.636Z,8.70
2023-03-12T00:51:14.558Z,8.90
2023-03-12T00:52:18.101Z,9.20
2023-03-12T00:53:15.565Z,8.80
2023-03-12T00:54:15.979Z,8.70
2023-03-12T00:55:17.059Z,8.50
2023-03-12T00:56:16.018Z,8.70
2023-03-12T00:57:40.617Z,9.20
2023-03-12T00:58:18.611Z,8.70
2023-03-12T00:59:19.980Z,8.20
2023-03-12T01:00:23.939Z,8.30
2023-03-12T01:01:25.428Z,8.20
2023-03-12T01:02:18.632Z,8.50
2023-03-12T01:03:18.653Z,8.50
2023-03-12T01:04:20.835Z,8.10
2023-03-12T01:05:18.440Z,8.80
2023-03-12T01:06:19.336Z,8.30
2023-03-12T01:07:19.387Z,8.80
2023-03-12T01:08:23.157Z,7.90
2023-03-12T01:09:19.828Z,8.10
2023-03-12T01:10:20.525Z,8.20
2023-03-12T01:11:21.293Z,7.80
2023-03-12T01:12:20.907Z,8.10
2023-03-12T01:13:20.864Z,8.10
2023-03-12T01:14:21.100Z,7.80
2023-03-12T01:15:22.107Z,8.10
2023-03-12T01:16:22.043Z,8.10
2023-03-12T01:17:22.394Z,8.10
2023-03-12T01:18:22.564Z,8.20
2023-03-12T01:19:23.149Z,8.30
2023-03-12T01:20:22.948Z,8.20
2023-03-12T01:21:24.467Z,8.30
2023-03-12T01:22:23.598Z,7.70
2023-03-12T01:23:23.819Z,8.70
2023-03-12T01:24:24.376Z,8.90
2023-03-12T01:25:24.610Z,9.20
2023-03-12T01:26:24.801Z,8.90
2023-03-12T01:27:25.074Z,8.00
2023-03-12T01:28:25.456Z,8.20
2023-03-12T01:29:25.657Z,13.70
2023-03-12T01:30:25.984Z,7.70
2023-03-12T01:31:26.388Z,7.40
2023-03-12T01:32:26.529Z,6.90
2023-03-12T01:33:26.814Z,7.10
2023-03-12T01:34:27.095Z,7.40
2023-03-12T01:35:27.536Z,7.10
2023-03-12T01:36:27.786Z,6.90
2023-03-12T01:37:28.102Z,6.60
2023-03-12T01:38:28.427Z,6.00
2023-03-12T01:39:28.695Z,6.30
2023-03-12T01:40:29.106Z,6.70
2023-03-12T01:41:29.301Z,6.40
2023-03-12T01:42:29.618Z,6.40
2023-03-12T01:43:29.927Z,6.40
2023-03-12T01:44:30.272Z,6.50
2023-03-12T01:45:30.534Z,6.70
2023-03-12T01:46:30.780Z,6.00
2023-03-12T01:47:31.050Z,6.60
2023-03-12T01:48:31.415Z,6.40
2023-03-12T01:49:31.798Z,6.10
2023-03-12T01:50:31.976Z,6.00
2023-03-12T01:51:32.337Z,5.80
2023-03-12T01:52:32.507Z,5.50
2023-03-12T01:53:32.835Z,5.70
2023-03-12T01:54:33.174Z,5.50
2023-03-12T01:55:33.505Z,6.10
2023-03-12T01:56:33.745Z,5.90
2023-03-12T01:57:34.091Z,6.00
2023-03-12T01:58:34.352Z,5.90
2023-03-12T01:59:34.901Z,6.40
2023-03-12T02:00:37.392Z,6.10
2023-03-12T02:01:35.289Z,6.40
2023-03-12T02:02:35.651Z,6.30
2023-03-12T02:03:36.506Z,6.40
2023-03-12T02:04:36.870Z,6.80
2023-03-12T02:05:36.432Z,6.30
2023-03-12T02:06:36.731Z,6.70
2023-03-12T02:07:37.047Z,5.80
2023-03-12T02:08:37.336Z,6.20
2023-03-12T02:09:37.776Z,6.10
2023-03-12T02:10:37.930Z,6.10
2023-03-12T02:11:38.629Z,6.10
2023-03-12T02:12:38.508Z,5.80
2023-03-12T02:13:38.779Z,6.10
2023-03-12T02:14:39.083Z,5.70
2023-03-12T02:15:39.871Z,6.00
2023-03-12T02:16:39.765Z,5.60
2023-03-12T02:17:39.923Z,6.10
2023-03-12T02:18:41.062Z,5.60
2023-03-12T02:19:40.444Z,6.00
2023-03-12T02:20:40.853Z,5.70
2023-03-12T02:21:41.149Z,6.10
2023-03-12T02:22:41.495Z,6.20
2023-03-12T02:23:41.701Z,6.20
2023-03-12T02:24:41.940Z,5.80
2023-03-12T02:25:42.234Z,5.50
2023-03-12T02:26:44.311Z,6.20
2023-03-12T02:27:42.755Z,5.70
2023-03-12T02:28:43.062Z,6.10
2023-03-12T02:29:43.396Z,6.10
2023-03-12T02:30:43.702Z,5.90
2023-03-12T02:31:44.082Z,5.70
2023-03-12T02:32:44.414Z,5.80
2023-03-12T02:33:44.746Z,5.50
2023-03-12T02:34:45.025Z,5.70
2023-03-12T02:35:45.401Z,5.70
2023-03-12T02:36:45.691Z,5.70
2023-03-12T02:37:45.994Z,5.40
2023-03-12T02:38:46.300Z,5.70
2023-03-12T02:39:46.597Z,5.50
2023-03-12T02:40:46.904Z,5.70
2023-03-12T02:41:47.208Z,6.10
2023-03-12T02:42:47.499Z,5.60
2023-03-12T02:43:47.766Z,5.50
2023-03-12T02:44:48.121Z,6.30
2023-03-12T02:45:48.317Z,5.50
2023-03-12T02:46:48.620Z,6.30
2023-03-12T02:47:48.935Z,6.10
2023-03-12T02:48:49.234Z,5.90
2023-03-12T02:49:49.473Z,5.90
2023-03-12T02:50:49.813Z,6.50
2023-03-12T02:51:50.179Z,6.00
2023-03-12T02:52:50.499Z,5.80
2023-03-12T02:53:51.714Z,5.60
2023-03-12T02:54:51.014Z,6.10
2023-03-12T02:55:51.327Z,5.40
2023-03-12T02:56:51.667Z,5.50
2023-03-12T02:57:51.875Z,5.90
2023-03-12T02:58:52.185Z,5.90
2023-03-12T02:59:52.488Z,5.60
2023-03-12T03:00:52.787Z,5.70
2023-03-12T03:01:53.087Z,5.80
2023-03-12T03:02:53.474Z,5.90
2023-03-12T03:03:53.759Z,5.70
2023-03-12T03:04:54.064Z,5.40
2023-03-12T03:05:54.386Z,5.30
2023-03-12T03:06:54.654Z,5.70
2023-03-12T03:07:54.972Z,5.40
2023-03-12T03:08:55.389Z,5.40
2023-03-12T03:09:55.485Z,5.30
2023-03-12T03:10:55.887Z,5.30
2023-03-12T03:11:56.183Z,5.10
2023-03-12T03:12:56.548Z,5.50
2023-03-12T03:13:56.892Z,4.90
2023-03-12T03:14:57.177Z,5.10
2023-03-12T03:15:57.547Z,5.40
2023-03-12T03:16:57.745Z,5.40
2023-03-12T03:17:58.013Z,5.20
2023-03-12T03:18:58.360Z,5.00
2023-03-12T03:19:58.603Z,4.70
2023-03-12T03:20:58.921Z,4.90
2023-03-12T03:21:59.227Z,5.40
2023-03-12T03:22:59.495Z,4.90
2023-03-12T03:23:59.846Z,5.50
2023-03-12T03:25:00.165Z,4.80
2023-03-12T03:26:07.435Z,5.10
2023-03-12T03:27:02.505Z,5.20
2023-03-12T03:28:01.355Z,5.20
2023-03-12T03:29:01.358Z,5.50
2023-03-12T03:30:01.672Z,5.70
2023-03-12T03:31:02.773Z,5.30
2023-03-12T03:32:02.182Z,5.60
2023-03-12T03:33:03.445Z,5.70
2023-03-12T03:34:02.846Z,5.60
2023-03-12T03:35:03.146Z,5.60
2023-03-12T03:36:03.660Z,5.60
2023-03-12T03:37:03.801Z,5.70
2023-03-12T03:38:04.132Z,5.90
2023-03-12T03:39:04.633Z,6.00
2023-03-12T03:40:04.642Z,6.20
2023-03-12T03:41:04.960Z,5.80
2023-03-12T03:42:05.285Z,6.00
2023-03-12T03:43:05.553Z,6.30
2023-03-12T03:44:06.893Z,6.80
2023-03-12T03:45:06.101Z,6.40
2023-03-12T03:46:06.418Z,6.30
2023-03-12T03:47:06.680Z,5.90
2023-03-12T03:48:07.003Z,6.30
2023-03-12T03:49:07.315Z,7.60
2023-03-12T03:50:07.712Z,5.70
2023-03-12T03:51:07.885Z,5.00
2023-03-12T03:52:09.077Z,5.10
2023-03-12T03:53:08.526Z,5.20
2023-03-12T03:54:08.819Z,5.00
2023-03-12T03:55:09.115Z,4.60
2023-03-12T03:56:09.407Z,5.00
2023-03-12T03:57:09.815Z,4.70
2023-03-12T03:58:10.928Z,4.80
2023-03-12T03:59:10.395Z,6.10
2023-03-12T04:00:10.679Z,6.50
2023-03-12T04:01:10.984Z,6.90
2023-03-12T04:02:11.404Z,7.00
2023-03-12T04:03:11.560Z,7.20
2023-03-12T04:04:11.866Z,6.30
2023-03-12T04:05:12.227Z,4.90
2023-03-12T04:06:13.352Z,4.80
2023-03-12T04:07:12.748Z,4.70
2023-03-12T04:08:13.026Z,4.90
2023-03-12T04:09:13.381Z,5.00
2023-03-12T04:10:13.710Z,5.20
2023-03-12T04:11:13.986Z,5.00
2023-03-12T04:12:14.327Z,5.00
2023-03-12T04:13:14.624Z,4.60
2023-03-12T04:14:14.919Z,4.70
2023-03-12T04:15:15.204Z,5.00
2023-03-12T04:16:15.588Z,4.70
2023-03-12T04:17:16.743Z,5.50
2023-03-12T04:18:16.077Z,5.10
2023-03-12T04:19:16.429Z,5.30
2023-03-12T04:20:16.702Z,5.20
2023-03-12T04:21:17.068Z,5.30
2023-03-12T04:22:17.347Z,4.80
2023-03-12T04:23:17.634Z,4.30
2023-03-12T04:24:17.941Z,4.40
2023-03-12T04:25:18.170Z,4.40
2023-03-12T04:26:18.473Z,4.20
2023-03-12T04:27:18.778Z,4.20
2023-03-12T04:28:19.961Z,4.10
2023-03-12T04:29:20.142Z,3.90
2023-03-12T04:30:19.561Z,4.10
2023-03-12T04:31:19.879Z,4.00
2023-03-12T04:32:20.250Z,4.20
2023-03-12T04:33:20.452Z,4.10
2023-03-12T04:34:20.728Z,3.80
2023-03-12T04:35:21.013Z,4.10
2023-03-12T04:36:21.315Z,4.10
2023-03-12T04:37:21.595Z,4.20
2023-03-12T04:38:21.940Z,4.50
2023-03-12T04:39:22.260Z,4.70
2023-03-12T04:40:22.551Z,4.90
2023-03-12T04:41:22.877Z,4.70
2023-03-12T04:42:23.169Z,5.00
2023-03-12T04:43:23.474Z,4.80
2023-03-12T04:44:23.810Z,4.50
2023-03-12T04:45:24.092Z,4.90
2023-03-12T04:46:24.449Z,4.30
2023-03-12T04:47:24.717Z,4.50
2023-03-12T04:48:25.025Z,4.40
2023-03-12T04:49:25.380Z,4.80
2023-03-12T04:50:25.691Z,4.60
2023-03-12T04:51:25.864Z,4.50
2023-03-12T04:52:26.187Z,4.60
2023-03-12T04:53:26.527Z,5.10
2023-03-12T04:54:26.928Z,4.70
2023-03-12T04:55:27.073Z,5.10
2023-03-12T04:56:27.370Z,4.50
2023-03-12T04:57:27.802Z,4.30
2023-03-12T04:58:27.949Z,4.50
2023-03-12T04:59:28.256Z,4.60
2023-03-12T05:00:28.579Z,4.00
2023-03-12T05:01:28.883Z,4.40
2023-03-12T05:02:29.114Z,4.50
2023-03-12T05:03:29.545Z,4.50
2023-03-12T05:04:31.877Z,4.00
2023-03-12T05:05:29.984Z,4.30
2023-03-12T05:06:30.357Z,3.90
2023-03-12T05:07:30.548Z,3.90
2023-03-12T05:08:30.895Z,3.90
2023-03-12T05:09:31.168Z,3.80
2023-03-12T05:10:31.429Z,3.90
2023-03-12T05:11:31.775Z,4.20
2023-03-12T05:12:32.094Z,4.40
2023-03-12T05:13:32.456Z,4.20
2023-03-12T05:14:32.606Z,4.10
2023-03-12T05:15:32.886Z,4.20
2023-03-12T05:16:33.274Z,4.20
2023-03-12T05:17:33.743Z,4.70
2023-03-12T05:18:34.188Z,4.20
2023-03-12T05:19:34.071Z,4.70
2023-03-12T05:20:34.547Z,4.70
2023-03-12T05:21:34.731Z,4.80
2023-03-12T05:22:34.893Z,4.90
2023-03-12T05:23:35.233Z,4.80
2023-03-12T05:24:35.414Z,4.90
2023-03-12T05:25:36.597Z,5.10
2023-03-12T05:26:36.080Z,5.00
2023-03-12T05:27:36.348Z,5.60
2023-03-12T05:28:36.681Z,5.40
2023-03-12T05:29:36.933Z,5.40
2023-03-12T05:30:37.282Z,5.30
2023-03-12T05:31:37.700Z,5.10
2023-03-12T05:32:37.920Z,5.70
2023-03-12T05:33:38.217Z,5.30
2023-03-12T05:34:38.482Z,5.90
2023-03-12T05:35:38.699Z,5.80
2023-03-12T05:36:39.063Z,5.40
2023-03-12T05:37:39.286Z,5.80
2023-03-12T05:38:39.706Z,6.40
2023-03-12T05:39:39.893Z,6.10
2023-03-12T05:40:40.270Z,5.90
2023-03-12T05:41:40.490Z,6.20
2023-03-12T05:42:40.683Z,6.20
2023-03-12T05:43:41.038Z,5.80
2023-03-12T05:44:41.352Z,6.20
2023-03-12T05:45:41.836Z,6.30
2023-03-12T05:46:42.029Z,6.90
2023-03-12T05:47:42.257Z,6.90
2023-03-12T05:48:42.654Z,7.30
2023-03-12T05:49:42.895Z,7.00
2023-03-12T05:50:43.167Z,7.00
2023-03-12T05:51:43.411Z,6.80
2023-03-12T05:52:43.654Z,7.50
2023-03-12T05:53:43.880Z,7.20
2023-03-12T05:54:44.257Z,7.60
2023-03-12T05:55:44.496Z,6.80
2023-03-12T05:56:44.730Z,7.10
2023-03-12T05:57:44.982Z,7.20
2023-03-12T05:58:46.488Z,6.80
2023-03-12T05:59:45.455Z,6.60
2023-03-12T06:00:45.671Z,6.20
2023-03-12T06:01:46.025Z,6.60
2023-03-12T06:02:46.349Z,6.60
2023-03-12T06:03:46.665Z,6.10
2023-03-12T06:04:46.879Z,6.30
2023-03-12T06:05:47.109Z,6.00
2023-03-12T06:06:47.508Z,6.20
2023-03-12T06:07:47.762Z,6.80
2023-03-12T06:08:48.177Z,6.40
2023-03-12T06:09:48.225Z,6.10
2023-03-12T06:10:48.430Z,6.10
2023-03-12T06:11:48.813Z,6.50
2023-03-12T06:12:49.078Z,6.60
2023-03-12T06:13:49.339Z,6.40
2023-03-12T06:14:49.602Z,6.60
2023-03-12T06:15:49.928Z,6.80
2023-03-12T06:16:50.216Z,6.60
2023-03-12T06:17:50.480Z,6.70
2023-03-12T06:18:50.704Z,6.80
2023-03-12T06:19:50.940Z,6.70
2023-03-12T06:20:51.322Z,6.40
2023-03-12T06:21:51.537Z,6.40
2023-03-12T06:22:51.787Z,6.20
2023-03-12T06:23:52.000Z,6.70
2023-03-12T06:24:52.417Z,6.70
2023-03-12T06:25:52.655Z,6.60
2023-03-12T06:26:52.943Z,6.60
2023-03-12T06:27:53.171Z,6.60
2023-03-12T06:28:53.515Z,6.80
2023-03-12T06:29:53.781Z,6.40
2023-03-12T06:30:53.996Z,6.50
2023-03-12T06:31:54.375Z,6.20
2023-03-12T06:32:54.565Z,6.40
2023-03-12T06:33:54.886Z,6.70
2023-03-12T06:34:55.109Z,6.30
2023-03-12T06:35:55.447Z,6.80
2023-03-12T06:36:55.720Z,6.50
2023-03-12T06:37:56.002Z,6.80
2023-03-12T06:38:57.306Z,6.40
2023-03-12T06:39:56.435Z,6.50
2023-03-12T06:40:56.665Z,6.90
2023-03-12T06:41:56.928Z,6.90
2023-03-12T06:42:57.159Z,7.20
2023-03-12T06:43:57.420Z,7.00
2023-03-12T06:44:57.719Z,6.90
2023-03-12T06:45:58.003Z,7.20
2023-03-12T06:46:58.281Z,7.10
2023-03-12T06:47:58.550Z,6.90
2023-03-12T06:48:58.820Z,6.60
2023-03-12T06:49:59.039Z,7.10
2023-03-12T06:50:59.448Z,7.10
2023-03-12T06:51:59.675Z,7.00
2023-03-12T06:52:59.905Z,6.60
2023-03-12T06:54:00.186Z,7.10
2023-03-12T06:55:00.418Z,6.90
2023-03-12T06:56:00.650Z,6.50
2023-03-12T06:57:00.910Z,6.20
2023-03-12T06:58:01.157Z,6.60
2023-03-12T06:59:01.384Z,6.60
2023-03-12T07:00:01.636Z,6.70
2023-03-12T07:01:01.900Z,6.40
2023-03-12T07:02:02.252Z,6.60
2023-03-12T07:03:02.482Z,6.20
2023-03-12T07:04:02.702Z,6.10
2023-03-12T07:05:03.085Z,6.10
2023-03-12T07:06:03.258Z,6.20
2023-03-12T07:07:03.755Z,6.30
2023-03-12T07:08:03.849Z,6.50
2023-03-12T07:09:04.177Z,6.40
2023-03-12T07:10:04.721Z,6.40
2023-03-12T07:11:04.670Z,6.40
2023-03-12T07:12:04.921Z,6.80
2023-03-12T07:13:05.652Z,12.30
2023-03-12T07:14:05.486Z,9.20
2023-03-12T07:15:05.724Z,10.70
2023-03-12T07:16:06.078Z,7.80
2023-03-12T07:17:06.271Z,7.40
2023-03-12T07:18:06.533Z,7.60
2023-03-12T07:19:06.810Z,7.60
2023-03-12T07:20:07.079Z,8.20
2023-03-12T07:21:07.343Z,8.50
2023-03-12T07:22:07.584Z,7.80
2023-03-12T07:23:07.916Z,8.00
2023-03-12T07:24:08.132Z,7.70
2023-03-12T07:25:09.629Z,7.80
2023-03-12T07:26:08.693Z,7.80
2023-03-12T07:27:09.190Z,8.40
2023-03-12T07:28:09.629Z,7.90
2023-03-12T07:29:09.578Z,7.90
2023-03-12T07:30:09.812Z,8.50
2023-03-12T07:31:10.672Z,11.50
2023-03-12T07:32:10.392Z,13.90
2023-03-12T07:33:10.778Z,8.90
2023-03-12T07:34:11.087Z,10.20
2023-03-12T07:35:11.233Z,7.30
2023-03-12T07:36:11.607Z,7.40
2023-03-12T07:37:11.736Z,7.90
2023-03-12T07:38:12.063Z,7.00
2023-03-12T07:39:12.337Z,6.70
2023-03-12T07:40:12.565Z,7.00
2023-03-12T07:41:13.789Z,6.70
2023-03-12T07:42:13.127Z,6.80
2023-03-12T07:43:13.369Z,6.60
2023-03-12T07:44:13.657Z,7.00
2023-03-12T07:45:13.974Z,7.00
2023-03-12T07:46:14.167Z,6.80
2023-03-12T07:47:23.762Z,6.50
2023-03-12T07:48:15.862Z,6.30
2023-03-12T07:49:15.306Z,6.20
2023-03-12T07:50:16.273Z,6.20
2023-03-12T07:51:15.659Z,6.00
2023-03-12T07:52:15.905Z,6.20
2023-03-12T07:53:16.313Z,5.80
2023-03-12T07:54:16.935Z,6.40
2023-03-12T07:55:16.833Z,6.00
2023-03-12T07:56:17.228Z,5.80
2023-03-12T07:57:18.458Z,6.40
2023-03-12T07:58:17.806Z,6.40
2023-03-12T07:59:17.902Z,6.10
2023-03-12T08:00:18.276Z,6.30
2023-03-12T08:01:18.432Z,5.90
2023-03-12T08:02:19.059Z,6.30
2023-03-12T08:03:19.149Z,6.30
2023-03-12T08:04:19.378Z,5.80
2023-03-12T08:05:19.519Z,6.00
2023-03-12T08:06:19.866Z,6.10
2023-03-12T08:07:20.176Z,10.00
2023-03-12T08:08:20.467Z,6.80
2023-03-12T08:09:20.757Z,6.90
2023-03-12T08:10:21.149Z,13.10
2023-03-12T08:11:21.751Z,7.70
2023-03-12T08:12:21.773Z,6.20
2023-03-12T08:13:21.878Z,6.60
2023-03-12T08:14:22.157Z,6.20
2023-03-12T08:15:22.426Z,6.70
2023-03-12T08:16:22.699Z,6.50
2023-03-12T08:17:23.114Z,6.30
2023-03-12T08:18:24.495Z,6.50
2023-03-12T08:19:23.470Z,6.60
2023-03-12T08:20:23.788Z,6.70
2023-03-12T08:21:24.687Z,6.20
2023-03-12T08:22:24.346Z,6.90
2023-03-12T08:23:24.601Z,7.00
2023-03-12T08:24:24.837Z,6.80
2023-03-12T08:25:25.146Z,7.00
2023-03-12T08:26:25.925Z,6.60
2023-03-12T08:27:25.735Z,6.90
2023-03-12T08:28:25.960Z,6.90
2023-03-12T08:29:26.943Z,7.10
2023-03-12T08:30:29.040Z,7.30
2023-03-12T08:31:26.873Z,6.90
2023-03-12T08:32:27.376Z,7.10
2023-03-12T08:33:27.338Z,7.50
2023-03-12T08:34:27.585Z,8.30
2023-03-12T08:35:27.870Z,7.50
2023-03-12T08:36:28.407Z,15.10
2023-03-12T08:37:28.349Z,7.70
2023-03-12T08:38:29.131Z,7.30
2023-03-12T08:39:29.742Z,7.40
2023-03-12T08:40:29.097Z,6.90
2023-03-12T08:41:29.349Z,7.00
2023-03-12T08:42:29.587Z,6.80
2023-03-12T08:43:30.184Z,6.30
2023-03-12T08:44:30.095Z,6.60
2023-03-12T08:45:30.927Z,6.40
2023-03-12T08:46:30.726Z,6.50
2023-03-12T08:47:30.976Z,6.50
2023-03-12T08:48:31.251Z,6.50
2023-03-12T08:49:31.535Z,6.80
2023-03-12T08:50:31.907Z,6.60
2023-03-12T08:51:32.116Z,6.80
2023-03-12T08:52:32.330Z,6.80
2023-03-12T08:53:32.600Z,6.50
2023-03-12T08:54:34.454Z,6.70
2023-03-12T08:55:33.296Z,7.60
2023-03-12T08:56:33.380Z,7.10
2023-03-12T08:57:35.440Z,7.80
2023-03-12T08:58:34.128Z,9.20
2023-03-12T08:59:34.253Z,7.50
2023-03-12T09:00:34.513Z,8.00
2023-03-12T09:01:35.328Z,6.40
2023-03-12T09:02:35.052Z,6.60
2023-03-12T09:03:35.268Z,6.80
2023-03-12T09:04:35.697Z,6.60
2023-03-12T09:05:35.917Z,6.60
2023-03-12T09:06:36.300Z,6.60
2023-03-12T09:07:36.731Z,6.50
2023-03-12T09:08:36.773Z,6.50
2023-03-12T09:09:37.036Z,7.00
2023-03-12T09:10:38.636Z,6.80
2023-03-12T09:11:39.889Z,6.80
2023-03-12T09:12:37.795Z,6.80
2023-03-12T09:14:02.510Z,6.70
2023-03-12T09:15:39.755Z,6.90
2023-03-12T09:16:39.035Z,7.00
2023-03-12T09:17:39.247Z,8.50
2023-03-12T09:18:40.072Z,7.40
2023-03-12T09:19:39.779Z,7.20
2023-03-12T09:20:40.069Z,7.40
2023-03-12T09:21:45.125Z,7.30
2023-03-12T09:22:40.733Z,7.00
2023-03-12T09:23:41.044Z,7.80
2023-03-12T09:24:41.393Z,7.30
2023-03-12T09:25:41.489Z,7.90
2023-03-12T09:26:41.744Z,7.60
2023-03-12T09:27:42.013Z,7.70
2023-03-12T09:28:42.299Z,7.80
2023-03-12T09:29:58.738Z,7.80
2023-03-12T09:30:44.049Z,8.00
2023-03-12T09:31:43.454Z,8.20
2023-03-12T09:32:43.584Z,8.20
2023-03-12T09:33:44.174Z,8.60
2023-03-12T09:34:44.166Z,8.80
2023-03-12T09:35:44.521Z,8.50
2023-03-12T09:36:44.819Z,7.90
2023-03-12T09:37:45.715Z,8.50
2023-03-12T09:38:45.328Z,8.30
2023-03-12T09:39:45.898Z,8.70
2023-03-12T09:40:45.981Z,8.70
2023-03-12T09:41:46.743Z,9.30
2023-03-12T09:42:47.619Z,9.60
2023-03-12T09:43:46.722Z,9.20
2023-03-12T09:44:46.990Z,9.00
2023-03-12T09:45:49.173Z,9.60
2023-03-12T09:46:48.876Z,9.50
2023-03-12T09:47:47.879Z,9.40
2023-03-12T09:48:48.120Z,9.30
2023-03-12T09:49:48.602Z,9.50
2023-03-12T09:50:48.740Z,9.80
2023-03-12T09:51:48.999Z,9.50
2023-03-12T09:52:50.293Z,10.40
2023-03-12T09:53:49.470Z,9.60
2023-03-12T09:54:49.771Z,9.80
2023-03-12T09:55:50.017Z,10.30
2023-03-12T09:56:50.298Z,10.00
2023-03-12T09:57:50.628Z,10.40
2023-03-12T09:58:50.914Z,10.30
2023-03-12T09:59:51.263Z,9.80
2023-03-12T10:00:51.508Z,10.30
2023-03-12T10:01:51.816Z,10.30
2023-03-12T10:02:52.199Z,12.90
2023-03-12T10:03:52.452Z,11.90
2023-03-12T10:04:59.950Z,10.10
2023-03-12T10:05:54.031Z,10.90
2023-03-12T10:06:53.415Z,10.50
2023-03-12T10:07:53.614Z,10.70
2023-03-12T10:08:53.923Z,10.90
2023-03-12T10:09:54.266Z,10.50
2023-03-12T10:10:54.538Z,10.80
2023-03-12T10:11:54.874Z,11.40
2023-03-12T10:12:55.236Z,10.60
2023-03-12T10:13:55.460Z,10.80
2023-03-12T10:14:55.729Z,10.30
2023-03-12T10:15:56.042Z,10.40
2023-03-12T10:16:56.279Z,10.80
2023-03-12T10:17:56.749Z,10.90
2023-03-12T10:18:57.109Z,10.50
2023-03-12T10:19:57.268Z,10.80
2023-03-12T10:20:57.472Z,10.30
2023-03-12T10:21:57.787Z,10.30
2023-03-12T10:22:58.407Z,10.70
2023-03-12T10:23:58.450Z,10.80
2023-03-12T10:24:58.560Z,11.20
2023-03-12T10:25:58.824Z,11.80
2023-03-12T10:26:59.083Z,10.60
2023-03-12T10:27:59.410Z,11.10
2023-03-12T10:28:59.706Z,10.40
2023-03-12T10:29:59.923Z,10.40
2023-03-12T10:31:00.325Z,10.80
2023-03-12T10:32:00.477Z,10.80
2023-03-12T10:33:00.886Z,10.90
2023-03-12T10:34:01.155Z,11.00
2023-03-12T10:35:01.283Z,10.60
2023-03-12T10:36:01.645Z,10.30
2023-03-12T10:37:01.900Z,9.90
2023-03-12T10:38:02.399Z,10.40
2023-03-12T10:39:02.530Z,10.80
2023-03-12T10:40:02.815Z,10.10
2023-03-12T10:41:03.116Z,10.10
2023-03-12T10:42:03.421Z,10.50
2023-03-12T10:43:03.721Z,9.80
2023-03-12T10:44:04.072Z,9.80
2023-03-12T10:45:04.303Z,9.70
2023-03-12T10:46:04.605Z,10.00
2023-03-12T10:47:04.812Z,10.90
2023-03-12T10:48:05.505Z,10.10
2023-03-12T10:49:05.369Z,10.50
2023-03-12T10:50:05.639Z,10.20
2023-03-12T10:51:05.897Z,10.70
2023-03-12T10:52:06.237Z,16.00
2023-03-12T10:53:06.448Z,10.80
2023-03-12T10:54:07.006Z,11.10
2023-03-12T10:55:07.468Z,10.70
2023-03-12T10:56:08.100Z,12.00
2023-03-12T10:57:07.539Z,10.80
2023-03-12T10:58:08.278Z,10.40
2023-03-12T10:59:11.132Z,10.30
2023-03-12T11:00:08.439Z,10.10
2023-03-12T11:01:08.710Z,10.40
2023-03-12T11:02:09.007Z,10.80
2023-03-12T11:03:10.950Z,10.60
2023-03-12T11:04:09.995Z,10.70
2023-03-12T11:05:10.457Z,10.30
2023-03-12T11:06:10.206Z,10.70
2023-03-12T11:07:31.380Z,11.10
2023-03-12T11:08:31.733Z,10.30
2023-03-12T11:09:16.548Z,10.20
2023-03-12T11:10:33.276Z,10.40
2023-03-12T11:11:32.633Z,10.60
2023-03-12T11:12:11.821Z,10.60
2023-03-12T11:13:12.166Z,10.00
2023-03-12T11:14:12.385Z,10.60
2023-03-12T11:15:13.129Z,10.80
2023-03-12T11:16:12.989Z,10.50
2023-03-12T11:17:13.290Z,10.30
2023-03-12T11:18:35.099Z,10.40
2023-03-12T11:19:13.809Z,10.20
2023-03-12T11:20:18.214Z,10.60
2023-03-12T11:21:14.609Z,10.10
2023-03-12T11:22:16.172Z,9.80
2023-03-12T11:23:14.953Z,10.10
2023-03-12T11:24:36.345Z,10.00
2023-03-12T11:25:45.441Z,10.00
2023-03-12T11:26:15.777Z,10.00
2023-03-12T11:27:16.020Z,9.70
2023-03-12T11:28:16.359Z,9.20
2023-03-12T11:29:17.117Z,9.60
2023-03-12T11:30:16.863Z,9.40
2023-03-12T11:31:17.229Z,9.40
2023-03-12T11:32:17.477Z,9.40
2023-03-12T11:33:17.706Z,9.00
2023-03-12T11:34:17.958Z,8.90
2023-03-12T11:35:18.333Z,9.40
2023-03-12T11:36:39.517Z,9.00
2023-03-12T11:37:18.743Z,8.90
2023-03-12T11:38:18.995Z,9.10
2023-03-12T11:39:19.240Z,9.10
2023-03-12T11:40:19.512Z,9.00
2023-03-12T11:41:19.821Z,8.80
2023-03-12T11:42:20.433Z,9.00
2023-03-12T11:43:32.330Z,8.70
2023-03-12T11:44:21.610Z,8.50
2023-03-12T11:45:20.969Z,8.30
2023-03-12T11:47:36.716Z,8.10
2023-03-12T11:48:41.780Z,8.10
2023-03-12T11:49:37.027Z,8.50
2023-03-12T11:50:58.284Z,8.10
2023-03-12T11:51:58.637Z,8.10
2023-03-12T11:52:58.964Z,8.40
2023-03-12T11:53:38.262Z,8.20
2023-03-12T11:54:38.519Z,8.00
2023-03-12T11:55:38.786Z,8.10
2023-03-12T11:57:00.044Z,9.40
2023-03-12T11:57:39.498Z,7.60
2023-03-12T11:58:39.676Z,8.00
2023-03-12T11:59:40.412Z,7.70
2023-03-12T12:00:43.125Z,7.40
2023-03-12T12:02:01.683Z,7.50
2023-03-12T12:02:40.844Z,7.30
2023-03-12T12:03:41.190Z,7.70
2023-03-12T12:04:42.945Z,7.20
2023-03-12T12:06:02.754Z,7.30
2023-03-12T12:06:48.297Z,6.80
2023-03-12T12:07:44.655Z,7.20
2023-03-12T12:08:42.917Z,7.00
2023-03-12T12:09:43.004Z,7.20
2023-03-12T12:10:43.212Z,7.20
2023-03-12T12:11:43.515Z,6.90
2023-03-12T12:12:43.772Z,6.90
2023-03-12T12:13:47.062Z,6.30
2023-03-12T12:14:44.573Z,6.40
2023-03-12T12:16:05.689Z,6.60
2023-03-12T12:17:14.082Z,6.40
2023-03-12T12:17:47.736Z,6.60
2023-03-12T12:18:45.593Z,7.20
2023-03-12T12:19:45.747Z,7.80
2023-03-12T12:20:47.629Z,7.90
2023-03-12T12:22:07.354Z,7.80
2023-03-12T12:22:46.598Z,8.30
2023-03-12T12:23:47.077Z,8.10
2023-03-12T12:24:47.230Z,8.30
2023-03-12T12:25:49.324Z,7.90
2023-03-12T12:26:49.971Z,8.30
2023-03-12T12:28:09.486Z,8.00
2023-03-12T12:30:03.813Z,7.80
2023-03-12T12:31:04.017Z,7.90
2023-03-12T12:32:05.257Z,8.10
2023-03-12T12:33:04.625Z,8.30
2023-03-12T12:34:04.889Z,8.30
2023-03-12T12:35:05.769Z,8.10
2023-03-12T12:36:08.084Z,9.40
2023-03-12T12:37:06.459Z,8.10
2023-03-12T12:38:10.209Z,8.00
2023-03-12T12:39:08.275Z,7.80
2023-03-12T12:40:06.638Z,7.70
2023-03-12T12:41:07.140Z,8.10
2023-03-12T12:42:07.252Z,8.20
2023-03-12T12:43:10.387Z,9.80
2023-03-12T12:44:07.803Z,8.00
2023-03-12T12:45:08.107Z,7.50
2023-03-12T12:46:10.052Z,7.70
2023-03-12T12:47:08.700Z,7.60
2023-03-12T12:48:08.960Z,7.50
2023-03-12T12:49:09.211Z,7.60
2023-03-12T12:50:09.441Z,7.60
2023-03-12T12:51:10.656Z,8.20
2023-03-12T12:52:10.025Z,7.60
2023-03-12T12:53:11.203Z,7.70
2023-03-12T12:54:10.646Z,7.40
2023-03-12T12:55:10.842Z,7.90
2023-03-12T12:56:12.509Z,7.90
2023-03-12T12:57:11.393Z,8.00
2023-03-12T12:58:11.673Z,7.30
2023-03-12T12:59:11.939Z,7.70
2023-03-12T13:00:12.249Z,7.30
2023-03-12T13:01:12.499Z,7.90
2023-03-12T13:02:12.731Z,7.30
2023-03-12T13:03:13.910Z,7.40
2023-03-12T13:04:13.301Z,7.60
2023-03-12T13:05:13.550Z,7.20
2023-03-12T13:06:13.805Z,7.10
2023-03-12T13:07:14.159Z,7.10
2023-03-12T13:08:14.399Z,7.20
2023-03-12T13:09:14.868Z,6.90
2023-03-12T13:10:14.993Z,7.00
2023-03-12T13:11:20.444Z,6.50
2023-03-12T13:12:16.489Z,6.80
2023-03-12T13:13:15.789Z,6.20
2023-03-12T13:14:16.083Z,6.50
2023-03-12T13:15:16.307Z,6.50
2023-03-12T13:16:16.657Z,6.20
2023-03-12T13:17:16.899Z,6.30
2023-03-12T13:18:17.135Z,6.30
2023-03-12T13:19:17.386Z,6.60
2023-03-12T13:20:17.697Z,7.90
2023-03-12T13:21:17.946Z,6.20
2023-03-12T13:22:18.233Z,6.30
2023-03-12T13:23:18.529Z,6.60